Latest Coastal Weather Observations for Cape Grim

IDT60701

Issued at 8:02 pm EST Friday 19 July 2019 (issued every 10 minutes, with the page automatically refreshed every 10 minutes)

About coastal observations | Map of coastal stations | Coastal observations for TAS | Marine services | Other Formats
Station Details ID: 091331 Name: CAPE GRIM Lat: -40.68 Lon: 144.69 Height: 86.0 m
Data from the previous 72 hours. | See also: Recent months at Cape Grim
Date/Time
EST
Wind Sea
Height
m
Swell Vis
km
Cloud Weather Temp
°C
Press
hPa
Rain since
9am
mm
Dir  Spd
kts
Gust
kts
Height
m
Period
s
Dir
19/08:00pm WNW 16 23 - - - - - Partly cloudy - 9.6 1018.6 0.0
19/07:50pm WNW 15 24 - - - - - Partly cloudy - 10.0 1018.4 0.0
19/07:30pm WNW 11 14 - - - - - Partly cloudy - 10.2 1018.3 0.0
19/07:10pm NW 12 18 - - - - - Partly cloudy - 9.5 1018.2 0.0
19/07:00pm WNW 20 27 - - - - - Partly cloudy - 9.5 1018.3 0.0
19/06:44pm WNW 18 29 - - - - - Partly cloudy - 10.9 1018.1 0.0
19/06:30pm WNW 16 21 - - - - - Partly cloudy - 10.9 1018.0 0.0
19/06:00pm W 16 22 - - - - - Mostly cloudy - 11.2 1017.7 0.0
19/05:30pm W 14 19 - - - - - - - 10.8 1017.3 0.0
19/05:00pm W 17 24 - - - - - Partly cloudy - 10.8 1017.0 0.0
19/04:30pm W 15 20 - - - - - Cloudy - 11.0 1017.2 0.0
19/04:00pm W 14 21 - - - - - Partly cloudy - 10.9 1017.0 0.0
19/03:30pm W 14 23 - - - - - Partly cloudy - 11.6 1016.9 0.0
19/03:00pm W 14 22 - - - - - Cloudy - 11.6 1017.0 0.0
19/02:36pm W 15 26 - - - - - Partly cloudy - 11.8 1016.8 0.0
19/02:30pm W 14 19 - - - - - Partly cloudy - 11.9 1016.8 0.0
19/02:00pm WSW 12 20 - - - - - Partly cloudy - 11.9 1016.7 0.0
19/01:43pm W 15 25 - - - - - Partly cloudy - 11.6 1016.7 0.0
19/01:30pm W 14 21 - - - - - - - 11.7 1016.6 0.0
19/01:00pm W 14 21 - - - - - Partly cloudy - 12.2 1016.6 0.0
19/12:30pm W 15 21 - - - - - - - 12.2 1016.9 0.0
19/12:00pm W 15 23 - - - - - - - 12.1 1017.2 0.0
19/11:30am W 16 23 - - - - - - - 11.8 1017.5 0.0
19/11:00am W 15 22 - - - - - Partly cloudy - 11.1 1017.8 0.0
19/10:30am W 13 19 - - - - - Partly cloudy - 11.7 1017.6 0.0
19/10:06am W 19 29 - - - - - Partly cloudy - 10.8 1017.7 0.0
19/10:00am W 20 29 - - - - - Partly cloudy - 11.0 1017.3 0.0
19/09:36am W 17 27 - - - - - Partly cloudy - 11.8 1017.0 0.0
19/09:30am W 16 25 - - - - - Partly cloudy - 11.6 1017.0 0.0
19/09:00am W 20 30 - - - - - Mostly clear - 11.3 1016.4 5.6
19/08:30am W 16 28 - - - - - Partly cloudy - 11.5 1016.0 5.6
19/08:28am W 17 28 - - - - - Partly cloudy - 11.5 1016.0 5.6
19/08:00am W 18 26 - - - - - Partly cloudy - 11.2 1015.8 5.6
19/07:45am W 17 27 - - - - - Partly cloudy - 11.7 1015.4 5.6
19/07:30am W 16 24 - - - - - Partly cloudy - 11.3 1015.3 5.6
19/07:00am W 18 31 - - - - - Partly cloudy - 11.3 1014.9 5.6
19/06:30am W 17 28 - - - - - Partly cloudy - 11.0 1014.4 5.6
19/06:00am WSW 15 29 - - - - - - - 10.9 1013.9 5.6
19/05:30am W 18 30 - - - - - Partly cloudy - 11.0 1013.5 5.6
19/05:00am WSW 18 30 - - - - - Partly cloudy - 11.2 1013.0 5.6
19/04:30am WSW 15 30 - - - - - Partly cloudy - 11.1 1012.7 5.6
19/04:00am WSW 17 28 - - - - - Partly cloudy - 11.0 1012.5 5.6
19/03:30am WSW 16 28 - - - - - Partly cloudy - 11.0 1012.4 5.6
19/03:00am WSW 17 30 - - - - - Partly cloudy - 10.9 1012.4 5.6
19/02:30am WSW 19 33 - - - - - Partly cloudy - 11.0 1012.0 5.6
19/02:00am WSW 17 31 - - - - - - - 10.8 1011.7 5.6
19/01:30am SW 20 34 - - - - - Partly cloudy - 10.8 1011.1 5.6
19/01:05am SW 22 32 - - - - - Partly cloudy - 10.4 1010.6 5.6
19/01:00am SW 25 34 - - - - - Partly cloudy - 10.1 1010.7 5.6
19/12:30am WSW 19 34 - - - - - Partly cloudy - 11.1 1010.3 5.6
19/12:00am SW 20 31 - - - - - Cloudy - 11.3 1010.0 5.6
 
Date/Time
EST
Wind Sea
Height
m
Swell Vis
km
Cloud Weather Temp
°C
Press
hPa
Rain since
9am
mm
Dir  Spd
kts
Gust
kts
Height
m
Period
s
Dir
18/11:30pm WSW 17 30 - - - - - Partly cloudy - 11.0 1009.8 5.6
18/11:00pm WSW 18 38 - - - - - Partly cloudy - 11.1 1009.4 5.6
18/10:30pm WSW 19 32 - - - - - Partly cloudy - 11.0 1008.9 5.6
18/10:00pm SW 28 39 - - - - - Partly cloudy - 10.9 1008.5 5.6
18/09:30pm WSW 23 41 - - - - - Partly cloudy - 10.8 1007.5 5.6
18/09:29pm WSW 22 41 - - - - - Partly cloudy - 10.7 1007.5 5.6
18/09:00pm W 27 41 - - - - - Partly cloudy Recent precip. 11.3 1006.6 5.6
18/08:49pm W 27 40 - - - - - Partly cloudy - 11.2 1006.3 5.6
18/08:33pm WNW 31 42 - - - - - Partly cloudy - 11.8 1006.0 5.4
18/08:30pm NW 31 41 - - - - - Partly cloudy - 12.0 1006.1 5.2
18/08:00pm NW 28 39 - - - - - Partly cloudy - 11.9 1006.1 4.4
18/07:51pm NW 29 39 - - - - - Partly cloudy - 12.0 1006.3 4.4
18/07:49pm NW 29 38 - - - - - Partly cloudy - 11.9 1006.3 4.4
18/07:30pm NW 30 41 - - - - - Partly cloudy - 11.9 1006.6 4.2
18/07:00pm NNW 29 39 - - - - - Partly cloudy - 11.3 1006.8 3.6
18/06:30pm NNW 29 39 - - - - - Partly cloudy - 10.7 1007.1 2.6
18/06:22pm NNW 27 37 - - - - - Partly cloudy - 10.7 1007.2 2.4
18/06:18pm NNW 25 37 - - - - - Partly cloudy - 10.7 1007.3 2.0
18/06:00pm NNW 25 31 - - - - - Mostly cloudy Rain 10.6 1008.0 1.0
18/05:30pm NNW 26 32 - - - - - Partly cloudy - 10.9 1008.3 0.2
18/05:01pm NW 23 33 - - - - - Partly cloudy - 11.3 1009.0 0.0
18/05:00pm NW 24 33 - - - - - Partly cloudy - 11.4 1009.0 0.0
18/04:30pm NW 25 30 - - - - - Partly cloudy - 11.6 1009.2 0.0
18/04:02pm NW 24 34 - - - - - Partly cloudy - 11.7 1009.2 0.0
18/04:00pm NW 24 31 - - - - - Partly cloudy - 11.8 1009.5 0.0
18/03:43pm NW 23 33 - - - - - Partly cloudy - 12.0 1009.6 0.0
18/03:30pm NW 22 29 - - - - - Partly cloudy - 11.9 1009.7 0.0
18/03:00pm NW 21 27 - - - - - Cloudy - 11.8 1009.8 0.0
18/02:30pm NW 21 29 - - - - - Partly cloudy - 11.6 1010.0 0.0
18/02:00pm NW 19 25 - - - - - Partly cloudy - 12.0 1010.7 0.0
18/01:30pm WNW 19 25 - - - - - Partly cloudy - 11.9 1011.3 0.0
18/01:00pm WNW 19 25 - - - - - Partly cloudy - 11.6 1011.6 0.0
18/12:30pm WNW 18 23 - - - - - Partly cloudy - 11.5 1012.1 0.0
18/12:00pm WNW 17 23 - - - - - Cloudy - 11.4 1012.8 0.0
18/11:30am WNW 19 25 - - - - - Partly cloudy - 11.3 1013.1 0.0
18/11:00am WNW 16 22 - - - - - Partly cloudy - 11.3 1013.5 0.0
18/10:30am W 17 23 - - - - - Partly cloudy - 11.3 1013.8 0.0
18/10:00am W 12 17 - - - - - Partly cloudy - 10.8 1014.1 0.0
18/09:30am W 11 17 - - - - - Partly cloudy - 10.7 1014.0 0.0
18/09:00am W 12 18 - - - - - Cloudy - 10.6 1013.8 5.8
18/08:30am W 15 21 - - - - - Partly cloudy - 10.8 1013.6 5.8
18/08:00am W 13 19 - - - - - Partly cloudy - 10.8 1013.0 5.8
18/07:30am WSW 12 20 - - - - - Partly cloudy - 10.7 1012.8 5.8
18/07:00am WSW 12 21 - - - - - Partly cloudy - 10.6 1012.7 5.8
18/06:30am WSW 14 24 - - - - - Partly cloudy - 10.5 1012.3 5.8
18/06:11am SW 15 25 - - - - - Cloudy - 10.8 1012.1 5.8
18/06:00am SW 16 24 - - - - - Cloudy - 10.6 1012.0 5.8
18/05:50am SW 16 27 - - - - - Partly cloudy - 10.5 1011.9 5.8
18/05:30am SW 17 26 - - - - - Partly cloudy - 10.5 1012.0 5.8
18/05:00am SW 22 33 - - - - - Partly cloudy - 10.4 1012.0 5.8
18/04:59am SW 23 33 - - - - - Partly cloudy - 10.6 1012.0 5.8
18/04:30am SW 26 32 - - - - - Partly cloudy - 10.1 1012.2 5.8
18/04:07am SW 23 34 - - - - - Partly cloudy - 10.3 1012.1 5.8
18/04:00am SW 23 31 - - - - - Partly cloudy - 10.3 1012.1 5.8
18/03:44am SW 21 32 - - - - - Partly cloudy - 10.3 1012.1 5.8
18/03:30am SW 25 32 - - - - - Partly cloudy - 10.1 1012.4 5.8
18/03:00am SW 23 35 - - - - - Partly cloudy - 10.1 1012.2 5.8
18/02:49am SW 28 38 - - - - - Partly cloudy - 10.5 1011.8 5.8
18/02:30am SW 30 38 - - - - - - - 10.5 1011.6 5.8
18/02:02am SW 32 42 - - - - - Partly cloudy - 10.5 1011.1 5.8
18/02:00am SW 33 42 - - - - - Partly cloudy - 10.5 1011.1 5.8
18/01:30am SW 27 38 - - - - - Partly cloudy - 10.1 1011.0 5.8
18/01:16am SW 27 37 - - - - - Partly cloudy - 9.8 1010.9 5.8
18/01:08am SW 34 47 - - - - - Partly cloudy - 9.4 1010.8 5.8
18/01:00am SW 37 51 - - - - - Partly cloudy - 8.7 1010.9 5.6
18/12:36am SW 35 46 - - - - - Partly cloudy - 10.5 1010.7 5.6
18/12:31am SW 31 46 - - - - - Partly cloudy - 10.3 1010.4 5.6
18/12:30am SW 30 46 - - - - - Partly cloudy - 10.4 1010.4 5.6
18/12:00am SW 28 43 - - - - - Cloudy Rain 10.2 1010.2 5.6
 
Date/Time
EST
Wind Sea
Height
m
Swell Vis
km
Cloud Weather Temp
°C
Press
hPa
Rain since
9am
mm
Dir  Spd
kts
Gust
kts
Height
m
Period
s
Dir
17/11:51pm SW 30 45 - - - - - Partly cloudy - 9.8 1010.2 5.4
17/11:32pm SW 33 49 - - - - - Partly cloudy - 10.5 1010.0 5.4
17/11:30pm SW 31 49 - - - - - Partly cloudy - 10.3 1010.0 5.4
17/11:00pm SW 27 40 - - - - - Partly cloudy - 10.5 1009.7 5.4
17/10:30pm SW 32 43 - - - - - Partly cloudy - 10.7 1009.6 5.4
17/10:23pm SW 30 43 - - - - - Partly cloudy - 10.7 1009.5 5.4
17/10:21pm SW 28 42 - - - - - Partly cloudy - 10.6 1009.6 5.4
17/10:14pm SW 28 42 - - - - - Partly cloudy - 10.7 1009.4 5.4
17/10:00pm SW 31 48 - - - - - Partly cloudy - 10.8 1009.2 5.4
17/09:30pm SW 32 45 - - - - - Partly cloudy - 10.6 1009.0 5.4
17/09:11pm SW 34 49 - - - - - Partly cloudy - 9.8 1009.1 5.4
17/09:09pm SW 33 45 - - - - - Partly cloudy - 10.6 1009.1 5.4
17/09:00pm SW 29 48 - - - - - Cloudy - 11.3 1008.9 5.4
17/08:30pm SW 32 46 - - - - - Partly cloudy - 11.0 1008.6 5.4
17/08:00pm SW 27 40 - - - - - Partly cloudy - 10.4 1008.6 5.4
17/07:44pm WSW 25 44 - - - - - Partly cloudy - 11.0 1008.1 5.4
17/07:30pm WSW 23 40 - - - - - Partly cloudy - 11.1 1008.1 5.4
17/07:00pm SW 25 42 - - - - - Partly cloudy - 10.8 1007.3 5.4
17/06:50pm SW 28 45 - - - - - Partly cloudy - 10.0 1007.4 5.4
17/06:46pm SW 26 45 - - - - - Partly cloudy - 9.9 1007.3 5.4
17/06:30pm WSW 25 46 - - - - - Partly cloudy - 10.5 1006.7 5.4
17/06:00pm WSW 27 45 - - - - - Cloudy - 10.3 1006.5 5.0
17/05:30pm WSW 23 41 - - - - - Partly cloudy - 10.8 1006.3 5.0
17/05:00pm WSW 25 40 - - - - - Partly cloudy - 11.2 1006.0 5.0
17/04:30pm SW 27 44 - - - - - Partly cloudy - 10.8 1005.9 5.0
17/04:00pm WSW 28 47 - - - - - Partly cloudy - 11.4 1005.5 4.8
17/03:54pm WSW 28 47 - - - - - Partly cloudy - 11.4 1005.4 4.8
17/03:30pm WSW 21 37 - - - - - Partly cloudy - 11.7 1005.3 4.8
17/03:00pm WSW 26 48 - - - - - Partly cloudy Recent precip. 11.1 1005.1 4.8
17/02:30pm WSW 25 43 - - - - - Partly cloudy - 11.7 1004.7 4.6
17/02:00pm WSW 23 42 - - - - - Partly cloudy - 12.0 1004.7 4.6
17/01:30pm W 25 43 - - - - - Partly cloudy - 12.0 1004.6 4.6
17/01:00pm W 26 36 - - - - - Partly cloudy - 10.7 1005.2 4.6
17/12:30pm W 28 40 - - - - - Partly cloudy - 9.3 1006.0 4.0
17/12:00pm WNW 32 42 - - - - - Cloudy - 11.8 1006.1 0.0
17/11:35am WNW 27 37 - - - - - Partly cloudy - 11.7 1006.9 0.0
17/11:30am W 25 32 - - - - - Partly cloudy - 11.8 1007.0 0.0
17/11:00am WNW 33 41 - - - - - Partly cloudy - 11.9 1008.0 0.0
17/10:47am WNW 30 40 - - - - - Partly cloudy - 11.8 1008.1 0.0
17/10:30am WNW 29 38 - - - - - Partly cloudy - 11.5 1008.7 0.0
17/10:00am WNW 28 34 - - - - - Partly cloudy - 11.9 1009.2 0.0
17/09:32am WNW 27 37 - - - - - Partly cloudy - 11.7 1009.7 0.0
17/09:30am WNW 26 33 - - - - - Partly cloudy - 11.8 1009.7 0.0
17/09:01am W 26 36 - - - - - Partly cloudy - 11.5 1010.0 0.0
17/09:00am W 27 36 - - - - - Cloudy - 11.5 1010.0 2.8
17/08:30am W 26 34 - - - - - Partly cloudy - 11.7 1009.9 2.8
17/08:00am W 25 31 - - - - - Partly cloudy - 11.6 1010.1 2.8
17/07:30am W 26 37 - - - - - Partly cloudy - 11.5 1010.6 2.8
17/07:02am W 28 38 - - - - - Partly cloudy - 11.6 1010.8 2.8
17/07:00am W 29 38 - - - - - Partly cloudy - 11.3 1010.7 2.8
17/06:39am W 26 36 - - - - - Partly cloudy - 11.6 1010.8 2.8
17/06:30am W 27 36 - - - - - Partly cloudy - 11.5 1010.7 2.8
17/06:00am W 26 37 - - - - - Cloudy - 11.3 1010.8 2.8
17/05:30am W 25 36 - - - - - Partly cloudy - 11.3 1011.4 2.8
17/05:15am W 25 35 - - - - - Partly cloudy - 11.3 1011.7 2.8
17/05:00am W 25 33 - - - - - Partly cloudy - 11.2 1011.8 2.8
17/04:30am W 25 36 - - - - - Partly cloudy - 11.2 1012.2 2.8
17/04:08am W 23 33 - - - - - Partly cloudy - 11.2 1012.4 2.8
17/04:00am W 23 31 - - - - - Partly cloudy - 11.1 1012.6 2.8
17/03:30am W 22 34 - - - - - Partly cloudy - 10.8 1013.3 2.8
17/03:08am W 21 31 - - - - - Partly cloudy - 11.0 1013.6 2.8
17/03:00am W 22 29 - - - - - Cloudy - 10.7 1013.6 2.8
17/02:35am W 23 33 - - - - - Partly cloudy - 10.7 1013.8 2.8
17/02:30am W 24 33 - - - - - Partly cloudy - 10.6 1013.8 2.8
17/02:05am W 18 29 - - - - - Partly cloudy - 10.5 1014.1 2.8
17/02:00am W 20 28 - - - - - Partly cloudy - 10.3 1014.2 2.8
17/01:48am W 19 29 - - - - - Partly cloudy - 10.5 1014.2 2.8
17/01:44am W 19 27 - - - - - Partly cloudy - 10.5 1014.3 2.8
17/01:33am W 19 31 - - - - - Partly cloudy - 9.8 1014.5 2.8
17/01:30am W 18 27 - - - - - Partly cloudy - 10.3 1014.5 2.8
17/01:19am W 17 27 - - - - - Partly cloudy - 10.1 1014.6 2.8
17/01:07am W 17 25 - - - - - Partly cloudy - 10.5 1014.9 2.0
17/01:00am W 18 26 - - - - - Partly cloudy - 10.1 1015.0 1.8
17/12:30am W 18 28 - - - - - Partly cloudy - 9.4 1015.4 1.6
17/12:00am WSW 17 27 - - - - - Mostly cloudy - 9.8 1015.7 1.4
 
Date/Time
EST
Wind Sea
Height
m
Swell Vis
km
Cloud Weather Temp
°C
Press
hPa
Rain since
9am
mm
Dir  Spd
kts
Gust
kts
Height
m
Period
s
Dir
16/11:30pm WSW 16 29 - - - - - Partly cloudy - 11.0 1015.8 1.4
16/11:00pm WSW 17 31 - - - - - Partly cloudy - 11.1 1016.1 1.4
16/10:34pm WSW 16 26 - - - - - Partly cloudy - 11.2 1016.2 1.2
16/10:30pm W 17 25 - - - - - Partly cloudy - 11.6 1016.1 1.2
16/10:00pm WSW 16 27 - - - - - Partly cloudy - 11.3 1016.3 1.2
16/09:32pm WSW 18 29 - - - - - Partly cloudy - 11.6 1016.3 1.2
16/09:30pm WSW 18 27 - - - - - Partly cloudy - 11.4 1016.3 1.2
16/09:00pm W 20 31 - - - - - Cloudy - 10.6 1016.5 1.2
16/08:31pm W 22 35 - - - - - Partly cloudy - 11.6 1016.5 1.2
16/08:30pm W 21 30 - - - - - Partly cloudy - 12.0 1016.5 1.2

Other formats

Comma delimited format used in spreadsheet applications
http://www.bom.gov.au/fwo/IDT60701/IDT60701.95954.axf

JavaScript Object Notation format (JSON) in row-major order
http://www.bom.gov.au/fwo/IDT60701/IDT60701.95954.json

Data quality

Most of these data are generated automatically and are frequently updated. Quality checks on data are not normally performed. It is possible for incorrect values to appear. Refer to information at About Latest Weather Observations and please check the disclaimer before using these data.